createdAt,value
2017-04-24T00:00:38.528Z,4.37
2017-04-24T00:01:37.816Z,4.20
2017-04-24T00:02:37.237Z,4.38
2017-04-24T00:03:36.516Z,4.25
2017-04-24T00:04:36.276Z,4.42
2017-04-24T00:05:35.539Z,4.48
2017-04-24T00:06:35.701Z,3.98
2017-04-24T00:07:35.017Z,4.10
2017-04-24T00:08:34.429Z,4.58
2017-04-24T00:09:33.661Z,4.18
2017-04-24T00:10:32.919Z,4.82
2017-04-24T00:11:33.310Z,3.95
2017-04-24T00:12:32.533Z,5.23
2017-04-24T00:13:32.523Z,4.55
2017-04-24T00:14:32.143Z,4.45
2017-04-24T00:15:31.568Z,4.12
2017-04-24T00:16:30.820Z,3.88
2017-04-24T00:17:30.778Z,4.07
2017-04-24T00:18:30.037Z,4.05
2017-04-24T00:19:29.672Z,3.87
2017-04-24T00:20:28.964Z,3.82
2017-04-24T00:21:28.185Z,4.22
2017-04-24T00:22:28.167Z,3.92
2017-04-24T00:23:27.392Z,3.40
2017-04-24T00:24:27.358Z,4.43
2017-04-24T00:25:26.896Z,3.78
2017-04-24T00:26:26.209Z,4.40
2017-04-24T00:27:25.425Z,4.40
2017-04-24T00:28:24.662Z,5.77
2017-04-24T00:29:24.609Z,5.32
2017-04-24T00:30:23.917Z,3.78
2017-04-24T00:31:23.216Z,4.67
2017-04-24T00:32:22.612Z,4.47
2017-04-24T00:33:22.261Z,4.75
2017-04-24T00:34:21.500Z,4.42
2017-04-24T00:35:21.147Z,4.40
2017-04-24T00:36:20.643Z,4.43
2017-04-24T00:37:19.912Z,5.33
2017-04-24T00:38:19.933Z,4.52
2017-04-24T00:39:19.469Z,5.17
2017-04-24T00:40:18.720Z,4.73
2017-04-24T00:41:18.239Z,4.33
2017-04-24T00:42:17.466Z,5.12
2017-04-24T00:43:16.683Z,4.25
2017-04-24T00:44:16.814Z,4.75
2017-04-24T00:45:16.029Z,3.90
2017-04-24T00:46:15.317Z,4.95
2017-04-24T00:47:14.629Z,3.77
2017-04-24T00:48:13.849Z,4.63
2017-04-24T00:49:13.825Z,4.83
2017-04-24T00:50:13.068Z,4.72
2017-04-24T00:51:12.286Z,4.48
2017-04-24T00:52:11.588Z,5.48
2017-04-24T00:53:10.873Z,4.00
2017-04-24T00:54:10.399Z,4.93
2017-04-24T00:55:09.971Z,4.53
2017-04-24T00:56:09.280Z,4.52
2017-04-24T00:57:09.150Z,4.48
2017-04-24T00:58:08.356Z,4.13
2017-04-24T00:59:07.567Z,5.03
2017-04-24T01:00:06.833Z,5.30
2017-04-24T01:01:06.260Z,3.95
2017-04-24T01:02:06.320Z,4.43
2017-04-24T01:03:05.602Z,4.45
2017-04-24T01:04:04.922Z,4.62
2017-04-24T01:05:04.191Z,3.92
2017-04-24T01:06:03.501Z,4.42
2017-04-24T01:07:02.878Z,3.72
2017-04-24T01:08:02.181Z,4.08
2017-04-24T01:09:01.400Z,4.17
2017-04-24T01:10:00.615Z,4.58
2017-04-24T01:11:00.165Z,4.78
2017-04-24T01:11:59.470Z,4.05
2017-04-24T01:12:58.717Z,4.03
2017-04-24T01:13:57.999Z,4.68
2017-04-24T01:14:57.761Z,4.57
2017-04-24T01:15:57.078Z,4.58
2017-04-24T01:16:56.308Z,4.52
2017-04-24T01:17:55.731Z,4.52
2017-04-24T01:18:55.768Z,4.52
2017-04-24T01:19:55.021Z,4.50
2017-04-24T01:20:54.452Z,4.30
2017-04-24T01:21:53.707Z,4.45
2017-04-24T01:22:52.981Z,3.83
2017-04-24T01:23:52.506Z,4.23
2017-04-24T01:24:52.487Z,4.08
2017-04-24T01:25:52.006Z,4.17
2017-04-24T01:26:51.979Z,3.87
2017-04-24T01:27:51.522Z,3.87
2017-04-24T01:28:50.752Z,4.68
2017-04-24T01:29:50.088Z,4.07
2017-04-24T01:30:50.093Z,5.00
2017-04-24T01:31:50.231Z,4.58
2017-04-24T01:32:49.447Z,3.72
2017-04-24T01:33:48.691Z,4.62
2017-04-24T01:34:48.713Z,4.33
2017-04-24T01:35:48.368Z,5.20
2017-04-24T01:36:47.615Z,4.62
2017-04-24T01:37:47.162Z,3.90
2017-04-24T01:38:46.426Z,5.30
2017-04-24T01:39:45.672Z,4.35
2017-04-24T01:40:45.619Z,4.37
2017-04-24T01:41:44.972Z,4.87
2017-04-24T01:42:44.990Z,4.53
2017-04-24T01:43:44.297Z,4.38
2017-04-24T01:44:43.708Z,4.62
2017-04-24T01:45:43.085Z,3.83
2017-04-24T01:46:42.326Z,4.00
2017-04-24T01:47:42.291Z,3.95
2017-04-24T01:48:41.572Z,3.97
2017-04-24T01:49:40.874Z,4.58
2017-04-24T01:50:40.097Z,5.15
2017-04-24T01:51:39.318Z,4.88
2017-04-24T01:52:38.536Z,5.40
2017-04-24T01:53:38.055Z,5.08
2017-04-24T01:54:37.284Z,4.73
2017-04-24T01:55:37.269Z,5.17
2017-04-24T01:56:36.547Z,4.50
2017-04-24T01:57:35.794Z,4.30
2017-04-24T01:58:35.084Z,4.52
2017-04-24T01:59:34.303Z,4.60
2017-04-24T02:00:33.532Z,5.12
2017-04-24T02:01:33.572Z,4.37
2017-04-24T02:02:34.008Z,4.50
2017-04-24T02:03:33.416Z,5.33
2017-04-24T02:04:33.601Z,4.75
2017-04-24T02:05:33.020Z,4.95
2017-04-24T02:06:32.267Z,4.93
2017-04-24T02:07:32.135Z,4.12
2017-04-24T02:08:31.490Z,4.18
2017-04-24T02:09:30.746Z,4.27
2017-04-24T02:10:29.960Z,4.72
2017-04-24T02:11:29.369Z,4.63
2017-04-24T02:12:28.599Z,4.22
2017-04-24T02:13:28.600Z,4.67
2017-04-24T02:14:28.563Z,4.80
2017-04-24T02:15:28.076Z,4.40
2017-04-24T02:16:27.893Z,4.47
2017-04-24T02:17:27.968Z,4.55
2017-04-24T02:18:27.284Z,4.88
2017-04-24T02:19:27.157Z,4.32
2017-04-24T02:20:26.864Z,4.15
2017-04-24T02:21:26.126Z,4.38
2017-04-24T02:22:25.451Z,4.35
2017-04-24T02:23:24.699Z,4.15
2017-04-24T02:24:24.977Z,4.52
2017-04-24T02:25:24.927Z,5.10
2017-04-24T02:26:24.148Z,4.63
2017-04-24T02:27:24.235Z,4.45
2017-04-24T02:28:23.484Z,4.52
2017-04-24T02:29:22.693Z,4.92
2017-04-24T02:30:21.944Z,4.68
2017-04-24T02:31:21.221Z,4.63
2017-04-24T02:32:20.541Z,4.17
2017-04-24T02:33:20.787Z,4.38
2017-04-24T02:34:20.112Z,4.78
2017-04-24T02:35:19.380Z,4.68
2017-04-24T02:36:18.670Z,4.97
2017-04-24T02:37:17.932Z,4.85
2017-04-24T02:38:18.774Z,4.60
2017-04-24T02:39:18.061Z,4.22
2017-04-24T02:40:17.291Z,4.85
2017-04-24T02:41:16.516Z,4.52
2017-04-24T02:42:15.742Z,4.45
2017-04-24T02:43:15.013Z,4.40
2017-04-24T02:44:15.393Z,4.23
2017-04-24T02:45:14.717Z,4.25
2017-04-24T02:46:15.126Z,4.48
2017-04-24T02:47:15.943Z,4.52
2017-04-24T02:48:15.199Z,4.60
2017-04-24T02:49:14.488Z,4.38
2017-04-24T02:50:13.752Z,5.00
2017-04-24T02:51:12.982Z,4.23
2017-04-24T02:52:12.187Z,5.10
2017-04-24T02:53:11.680Z,4.15
2017-04-24T02:54:10.953Z,4.40
2017-04-24T02:55:10.164Z,3.95
2017-04-24T02:56:10.228Z,4.42
2017-04-24T02:57:10.165Z,4.90
2017-04-24T02:58:11.314Z,4.47
2017-04-24T02:59:10.768Z,4.30
2017-04-24T03:00:10.223Z,4.32
2017-04-24T03:01:09.476Z,4.35
2017-04-24T03:02:08.699Z,4.48
2017-04-24T03:03:09.284Z,4.08
2017-04-24T03:04:08.884Z,4.15
2017-04-24T03:05:08.596Z,4.63
2017-04-24T03:06:08.300Z,4.18
2017-04-24T03:07:07.715Z,4.98
2017-04-24T03:08:08.039Z,4.08
2017-04-24T03:09:08.615Z,4.37
2017-04-24T03:10:08.155Z,4.92
2017-04-24T03:11:07.404Z,4.80
2017-04-24T03:12:06.661Z,4.07
2017-04-24T03:13:06.700Z,4.68
2017-04-24T03:14:06.373Z,4.58
2017-04-24T03:15:05.665Z,4.10
2017-04-24T03:16:04.882Z,4.13
2017-04-24T03:17:04.115Z,4.75
2017-04-24T03:18:03.744Z,4.65
2017-04-24T03:19:02.974Z,4.55
2017-04-24T03:20:02.249Z,3.95
2017-04-24T03:21:01.508Z,5.08
2017-04-24T03:22:00.704Z,4.52
2017-04-24T03:22:59.920Z,4.87
2017-04-24T03:23:59.356Z,5.58
2017-04-24T03:24:59.095Z,4.80
2017-04-24T03:25:58.332Z,4.90
2017-04-24T03:26:58.814Z,4.40
2017-04-24T03:27:59.343Z,4.95
2017-04-24T03:28:58.794Z,4.27
2017-04-24T03:29:58.378Z,4.20
2017-04-24T03:30:58.342Z,4.43
2017-04-24T03:31:57.936Z,5.35
2017-04-24T03:32:58.395Z,4.92
2017-04-24T03:33:57.623Z,4.47
2017-04-24T03:34:56.891Z,5.38
2017-04-24T03:35:56.524Z,4.80
2017-04-24T03:36:55.745Z,4.38
2017-04-24T03:37:55.713Z,5.03
2017-04-24T03:38:54.938Z,5.23
2017-04-24T03:39:55.153Z,5.03
2017-04-24T03:40:56.389Z,4.70
2017-04-24T03:41:56.858Z,4.55
2017-04-24T03:42:56.086Z,5.10
2017-04-24T03:43:55.325Z,4.35
2017-04-24T03:44:54.551Z,4.60
2017-04-24T03:45:53.854Z,5.00
2017-04-24T03:46:53.196Z,4.63
2017-04-24T03:47:52.431Z,4.97
2017-04-24T03:48:51.756Z,4.45
2017-04-24T03:49:51.173Z,4.67
2017-04-24T03:50:50.493Z,4.80
2017-04-24T03:51:49.748Z,5.35
2017-04-24T03:52:49.004Z,5.03
2017-04-24T03:53:49.082Z,4.72
2017-04-24T03:54:49.081Z,4.83
2017-04-24T03:55:48.835Z,5.38
2017-04-24T03:56:48.489Z,5.75
2017-04-24T03:57:48.519Z,5.08
2017-04-24T03:58:48.260Z,5.07
2017-04-24T03:59:47.511Z,4.62
2017-04-24T04:00:47.492Z,5.27
2017-04-24T04:01:47.174Z,4.72
2017-04-24T04:02:46.397Z,4.78
2017-04-24T04:03:45.644Z,5.33
2017-04-24T04:04:44.908Z,5.45
2017-04-24T04:05:44.789Z,6.22
2017-04-24T04:06:45.013Z,4.90
2017-04-24T04:07:44.960Z,5.75
2017-04-24T04:08:44.209Z,4.85
2017-04-24T04:09:44.197Z,5.63
2017-04-24T04:10:43.460Z,5.72
2017-04-24T04:11:42.796Z,5.10
2017-04-24T04:12:43.562Z,5.92
2017-04-24T04:13:42.825Z,5.00
2017-04-24T04:14:42.053Z,5.63
2017-04-24T04:15:41.272Z,5.77
2017-04-24T04:16:40.541Z,5.65
2017-04-24T04:17:39.790Z,5.12
2017-04-24T04:18:39.364Z,5.62
2017-04-24T04:19:38.907Z,6.18
2017-04-24T04:20:38.151Z,5.22
2017-04-24T04:21:38.277Z,5.57
2017-04-24T04:22:38.435Z,5.40
2017-04-24T04:23:37.908Z,5.52
2017-04-24T04:24:37.131Z,5.50
2017-04-24T04:25:36.739Z,5.18
2017-04-24T04:26:35.980Z,4.77
2017-04-24T04:27:35.187Z,5.83
2017-04-24T04:28:34.810Z,6.22
2017-04-24T04:29:34.287Z,6.10
2017-04-24T04:30:33.694Z,5.27
2017-04-24T04:31:33.323Z,5.53
2017-04-24T04:32:33.366Z,5.78
2017-04-24T04:33:32.617Z,6.13
2017-04-24T04:34:32.608Z,5.22
2017-04-24T04:35:31.881Z,5.42
2017-04-24T04:36:31.811Z,5.35
2017-04-24T04:37:31.794Z,6.02
2017-04-24T04:38:31.019Z,5.70
2017-04-24T04:39:30.983Z,6.57
2017-04-24T04:40:30.280Z,5.95
2017-04-24T04:41:29.492Z,6.07
2017-04-24T04:42:29.464Z,5.75
2017-04-24T04:43:28.854Z,5.50
2017-04-24T04:44:28.449Z,5.95
2017-04-24T04:45:27.672Z,5.92
2017-04-24T04:46:27.868Z,6.18
2017-04-24T04:47:27.855Z,5.63
2017-04-24T04:48:27.072Z,6.02
2017-04-24T04:49:26.997Z,6.45
2017-04-24T04:50:26.955Z,5.85
2017-04-24T04:51:26.224Z,6.02
2017-04-24T04:52:26.266Z,5.83
2017-04-24T04:53:25.624Z,5.62
2017-04-24T04:54:24.864Z,5.87
2017-04-24T04:55:24.103Z,6.10
2017-04-24T04:56:24.201Z,6.22
2017-04-24T04:57:23.781Z,6.05
2017-04-24T04:58:23.810Z,6.47
2017-04-24T04:59:23.151Z,5.13
2017-04-24T05:00:22.371Z,6.13
2017-04-24T05:01:22.347Z,6.13
2017-04-24T05:02:21.571Z,4.82
2017-04-24T05:03:22.104Z,5.73
2017-04-24T05:04:21.398Z,9.33
2017-04-24T05:05:21.623Z,6.30
2017-04-24T05:06:20.859Z,5.53
2017-04-24T05:07:21.012Z,5.83
2017-04-24T05:08:20.272Z,5.95
2017-04-24T05:09:20.224Z,6.73
2017-04-24T05:10:19.479Z,4.78
2017-04-24T05:11:19.483Z,6.02
2017-04-24T05:12:19.464Z,5.08
2017-04-24T05:13:18.708Z,5.85
2017-04-24T05:14:17.937Z,5.23
2017-04-24T05:15:17.195Z,5.37
2017-04-24T05:16:16.476Z,5.45
2017-04-24T05:17:16.309Z,5.23
2017-04-24T05:18:15.535Z,5.52
2017-04-24T05:19:15.542Z,5.40
2017-04-24T05:20:15.540Z,6.57
2017-04-24T05:21:15.421Z,6.27
2017-04-24T05:22:14.985Z,4.93
2017-04-24T05:23:14.225Z,5.43
2017-04-24T05:24:13.656Z,5.83
2017-04-24T05:25:13.651Z,6.05
2017-04-24T05:26:14.003Z,5.25
2017-04-24T05:27:13.229Z,5.38
2017-04-24T05:28:12.488Z,5.40
2017-04-24T05:29:11.711Z,4.63
2017-04-24T05:30:10.932Z,5.02
2017-04-24T05:31:10.519Z,4.42
2017-04-24T05:32:10.508Z,4.95
2017-04-24T05:33:09.743Z,5.32
2017-04-24T05:34:09.757Z,4.85
2017-04-24T05:35:09.477Z,4.68
2017-04-24T05:36:08.716Z,4.83
2017-04-24T05:37:08.760Z,4.85
2017-04-24T05:38:07.957Z,3.98
2017-04-24T05:39:07.207Z,5.10
2017-04-24T05:40:07.187Z,4.17
2017-04-24T05:41:06.426Z,3.75
2017-04-24T05:42:05.659Z,4.00
2017-04-24T05:43:05.594Z,3.97
2017-04-24T05:44:05.384Z,3.98
2017-04-24T05:45:05.381Z,4.68
2017-04-24T05:46:04.624Z,4.00
2017-04-24T05:47:03.831Z,3.95
2017-04-24T05:48:03.272Z,4.73
2017-04-24T05:49:03.233Z,3.92
2017-04-24T05:50:02.781Z,3.95
2017-04-24T05:51:02.092Z,4.77
2017-04-24T05:52:01.433Z,3.80
2017-04-24T05:53:00.649Z,4.30
2017-04-24T05:54:00.594Z,4.55
2017-04-24T05:54:59.858Z,4.08
2017-04-24T05:55:59.075Z,4.37
2017-04-24T05:56:58.293Z,4.02
2017-04-24T05:57:57.552Z,4.18
2017-04-24T05:58:56.772Z,4.83
2017-04-24T05:59:55.976Z,4.13
2017-04-24T06:00:55.277Z,4.18
2017-04-24T06:01:56.748Z,3.73
2017-04-24T06:02:55.961Z,4.48
2017-04-24T06:03:55.394Z,4.57
2017-04-24T06:04:55.355Z,4.32
2017-04-24T06:05:54.556Z,4.85
2017-04-24T06:06:53.775Z,4.00
2017-04-24T06:07:53.558Z,3.93
2017-04-24T06:08:53.213Z,4.42
2017-04-24T06:09:53.127Z,4.45
2017-04-24T06:10:52.382Z,4.05
2017-04-24T06:11:53.055Z,4.83
2017-04-24T06:12:52.287Z,4.58
2017-04-24T06:13:52.321Z,5.12
2017-04-24T06:14:51.540Z,4.30
2017-04-24T06:15:50.956Z,4.48
2017-04-24T06:16:50.522Z,4.37
2017-04-24T06:17:49.798Z,4.70
2017-04-24T06:18:49.032Z,4.60
2017-04-24T06:19:48.248Z,4.77
2017-04-24T06:20:48.231Z,4.18
2017-04-24T06:21:47.475Z,4.38
2017-04-24T06:22:47.651Z,4.68
2017-04-24T06:23:47.621Z,5.48
2017-04-24T06:24:47.762Z,4.80
2017-04-24T06:25:47.754Z,5.77
2017-04-24T06:26:47.003Z,5.40
2017-04-24T06:27:46.392Z,5.03
2017-04-24T06:28:45.688Z,5.15
2017-04-24T06:29:45.008Z,5.10
2017-04-24T06:30:44.236Z,4.88
2017-04-24T06:31:44.230Z,5.03
2017-04-24T06:32:43.527Z,4.95
2017-04-24T06:33:43.575Z,5.47
2017-04-24T06:34:42.809Z,4.90
2017-04-24T06:35:42.391Z,4.88
2017-04-24T06:36:41.601Z,4.42
2017-04-24T06:37:40.834Z,4.70
2017-04-24T06:38:40.051Z,4.77
2017-04-24T06:39:39.301Z,5.05
2017-04-24T06:40:38.947Z,4.60
2017-04-24T06:41:38.172Z,4.13
2017-04-24T06:42:38.749Z,5.55
2017-04-24T06:43:38.122Z,4.70
2017-04-24T06:44:37.345Z,5.12
2017-04-24T06:45:36.627Z,4.93
2017-04-24T06:46:36.655Z,4.40
2017-04-24T06:47:35.887Z,5.37
2017-04-24T06:48:35.088Z,4.77
2017-04-24T06:49:34.300Z,4.30
2017-04-24T06:50:34.536Z,5.30
2017-04-24T06:51:33.805Z,4.57
2017-04-24T06:52:33.013Z,5.30
2017-04-24T06:53:32.224Z,5.63
2017-04-24T06:54:32.709Z,4.88
2017-04-24T06:55:31.932Z,4.30
2017-04-24T06:56:31.903Z,5.00
2017-04-24T06:57:31.389Z,4.47
2017-04-24T06:58:30.589Z,4.97
2017-04-24T06:59:29.797Z,4.62
2017-04-24T07:00:29.017Z,5.47
2017-04-24T07:01:28.841Z,4.85
2017-04-24T07:02:28.169Z,5.22
2017-04-24T07:03:27.849Z,4.95
2017-04-24T07:04:27.209Z,4.18
2017-04-24T07:05:26.443Z,4.40
2017-04-24T07:06:25.654Z,4.00
2017-04-24T07:07:25.339Z,4.37
2017-04-24T07:08:24.969Z,4.08
2017-04-24T07:09:24.217Z,5.05
2017-04-24T07:10:23.459Z,4.63
2017-04-24T07:11:23.298Z,4.53
2017-04-24T07:12:22.927Z,4.82
2017-04-24T07:13:22.945Z,4.47
2017-04-24T07:14:22.933Z,4.20
2017-04-24T07:15:22.200Z,4.88
2017-04-24T07:16:22.603Z,4.15
2017-04-24T07:17:21.865Z,4.47
2017-04-24T07:18:21.055Z,4.57
2017-04-24T07:19:21.065Z,4.73
2017-04-24T07:20:20.374Z,5.13
2017-04-24T07:21:19.744Z,4.78
2017-04-24T07:22:18.997Z,4.60
2017-04-24T07:23:19.000Z,4.62
2017-04-24T07:24:18.203Z,4.52
2017-04-24T07:25:17.455Z,5.42
2017-04-24T07:26:17.052Z,4.92
2017-04-24T07:27:16.601Z,5.15
2017-04-24T07:28:15.852Z,4.15
2017-04-24T07:29:15.153Z,5.27
2017-04-24T07:30:14.958Z,4.92
2017-04-24T07:31:14.284Z,4.57
2017-04-24T07:32:14.140Z,5.50
2017-04-24T07:33:13.404Z,5.28
2017-04-24T07:34:12.683Z,5.12
2017-04-24T07:35:11.945Z,4.38
2017-04-24T07:36:11.908Z,5.10
2017-04-24T07:37:11.209Z,4.80
2017-04-24T07:38:10.474Z,4.67
2017-04-24T07:39:09.752Z,4.97
2017-04-24T07:40:09.012Z,4.80
2017-04-24T07:41:09.432Z,4.87
2017-04-24T07:42:09.392Z,5.03
2017-04-24T07:43:08.615Z,4.40
2017-04-24T07:44:07.833Z,4.50
2017-04-24T07:45:07.392Z,4.83
2017-04-24T07:46:06.643Z,4.07
2017-04-24T07:47:05.868Z,4.85
2017-04-24T07:48:05.297Z,4.78
2017-04-24T07:49:04.643Z,4.53
2017-04-24T07:50:04.662Z,4.67
2017-04-24T07:51:04.214Z,4.93
2017-04-24T07:52:04.944Z,5.37
2017-04-24T07:53:04.984Z,4.78
2017-04-24T07:54:04.752Z,4.80
2017-04-24T07:55:04.296Z,4.70
2017-04-24T07:56:04.310Z,4.70
2017-04-24T07:57:03.514Z,4.75
2017-04-24T07:58:03.946Z,4.73
2017-04-24T07:59:03.460Z,4.80
2017-04-24T08:00:02.873Z,4.73
2017-04-24T08:01:02.389Z,4.50
2017-04-24T08:02:01.836Z,4.23
2017-04-24T08:03:01.235Z,5.12
2017-04-24T08:04:00.458Z,4.97
2017-04-24T08:04:59.721Z,3.85
2017-04-24T08:05:59.183Z,4.68
2017-04-24T08:06:58.792Z,3.77
2017-04-24T08:07:58.162Z,3.98
2017-04-24T08:08:58.169Z,4.00
2017-04-24T08:09:58.411Z,4.58
2017-04-24T08:10:58.175Z,3.87
2017-04-24T08:11:58.168Z,3.87
2017-04-24T08:12:58.205Z,4.17
2017-04-24T08:13:58.200Z,4.42
2017-04-24T08:14:58.444Z,4.78
2017-04-24T08:15:57.901Z,4.77
2017-04-24T08:16:57.167Z,4.63
2017-04-24T08:17:56.713Z,4.00
2017-04-24T08:18:56.488Z,4.20
2017-04-24T08:19:56.106Z,4.75
2017-04-24T08:20:56.732Z,4.33
2017-04-24T08:21:56.000Z,3.98
2017-04-24T08:22:55.313Z,4.30
2017-04-24T08:23:55.571Z,3.65
2017-04-24T08:24:54.813Z,4.42
2017-04-24T08:25:55.009Z,3.93
2017-04-24T08:26:54.219Z,3.90
2017-04-24T08:27:54.170Z,4.18
2017-04-24T08:28:53.437Z,4.33
2017-04-24T08:29:52.703Z,3.58
2017-04-24T08:30:52.660Z,4.52
2017-04-24T08:31:52.176Z,4.30
2017-04-24T08:32:52.717Z,4.53
2017-04-24T08:33:52.244Z,4.73
2017-04-24T08:34:52.075Z,3.92
2017-04-24T08:35:51.842Z,3.92
2017-04-24T08:36:51.292Z,3.50
2017-04-24T08:37:51.045Z,4.10
2017-04-24T08:38:50.265Z,3.90
2017-04-24T08:39:50.078Z,3.40
2017-04-24T08:40:50.296Z,3.80
2017-04-24T08:41:50.106Z,3.63
2017-04-24T08:42:50.105Z,4.15
2017-04-24T08:43:49.378Z,3.92
2017-04-24T08:44:48.610Z,3.82
2017-04-24T08:45:48.556Z,3.98
2017-04-24T08:46:48.459Z,4.38
2017-04-24T08:47:47.700Z,4.32
2017-04-24T08:48:47.527Z,3.97
2017-04-24T08:49:46.806Z,3.98
2017-04-24T08:50:47.532Z,3.63
2017-04-24T08:51:46.785Z,3.58
2017-04-24T08:52:46.628Z,3.90
2017-04-24T08:53:45.956Z,3.63
2017-04-24T08:54:45.224Z,3.60
2017-04-24T08:55:44.835Z,3.82
2017-04-24T08:56:44.555Z,3.78
2017-04-24T08:57:44.225Z,3.35
2017-04-24T08:58:43.431Z,3.77
2017-04-24T08:59:42.652Z,4.42
2017-04-24T09:00:42.451Z,3.30
2017-04-24T09:01:41.899Z,4.08
2017-04-24T09:02:41.149Z,3.00
2017-04-24T09:03:40.388Z,3.72
2017-04-24T09:04:40.088Z,3.48
2017-04-24T09:05:39.637Z,3.33
2017-04-24T09:06:39.619Z,3.27
2017-04-24T09:07:39.309Z,3.43
2017-04-24T09:08:39.102Z,3.25
2017-04-24T09:09:38.382Z,3.38
2017-04-24T09:10:38.266Z,3.00
2017-04-24T09:11:38.743Z,2.83
2017-04-24T09:12:37.997Z,3.17
2017-04-24T09:13:37.869Z,2.30
2017-04-24T09:14:37.627Z,3.10
2017-04-24T09:15:36.861Z,3.35
2017-04-24T09:16:43.478Z,3.17
2017-04-24T09:17:42.763Z,3.20
2017-04-24T09:18:42.375Z,3.32
2017-04-24T09:19:41.802Z,2.83
2017-04-24T09:20:42.146Z,3.80
2017-04-24T09:21:41.965Z,3.18
2017-04-24T09:22:41.276Z,3.12
2017-04-24T09:23:41.154Z,3.58
2017-04-24T09:24:40.444Z,3.10
2017-04-24T09:25:40.217Z,3.15
2017-04-24T09:26:40.014Z,2.67
2017-04-24T09:27:39.487Z,2.22
2017-04-24T09:28:39.996Z,2.13
2017-04-24T09:29:40.397Z,2.40
2017-04-24T09:30:39.652Z,2.52
2017-04-24T09:31:39.451Z,2.15
2017-04-24T09:32:40.552Z,2.92
2017-04-24T09:33:40.543Z,2.58
2017-04-24T09:34:39.905Z,3.08
2017-04-24T09:35:39.196Z,2.92
2017-04-24T09:36:39.180Z,3.30
2017-04-24T09:37:38.496Z,3.38
2017-04-24T09:38:37.736Z,2.70
2017-04-24T09:39:37.270Z,2.55
2017-04-24T09:40:36.516Z,3.08
2017-04-24T09:41:36.038Z,3.28
2017-04-24T09:42:35.464Z,2.97
2017-04-24T09:43:35.698Z,3.37
2017-04-24T09:44:35.219Z,2.53
2017-04-24T09:45:34.509Z,3.57
2017-04-24T09:46:33.867Z,3.23
2017-04-24T09:47:33.582Z,3.32
2017-04-24T09:48:33.877Z,3.23
2017-04-24T09:49:33.096Z,2.82
2017-04-24T09:50:32.488Z,3.35
2017-04-24T09:51:32.132Z,3.27
2017-04-24T09:52:31.497Z,3.72
2017-04-24T09:53:31.921Z,2.73
2017-04-24T09:54:32.073Z,3.12
2017-04-24T09:55:31.330Z,3.35
2017-04-24T09:56:31.425Z,3.20
2017-04-24T09:57:31.891Z,3.45
2017-04-24T09:58:31.852Z,3.73
2017-04-24T09:59:31.085Z,3.08
2017-04-24T10:00:30.842Z,3.63
2017-04-24T10:01:31.428Z,3.30
2017-04-24T10:02:31.694Z,3.32
2017-04-24T10:03:31.567Z,3.15
2017-04-24T10:04:31.155Z,2.87
2017-04-24T10:05:30.899Z,2.90
2017-04-24T10:06:30.987Z,2.95
2017-04-24T10:07:30.949Z,3.00
2017-04-24T10:08:30.171Z,3.37
2017-04-24T10:09:30.039Z,2.58
2017-04-24T10:10:29.693Z,3.37
2017-04-24T10:11:28.970Z,2.67
2017-04-24T10:12:28.313Z,3.07
2017-04-24T10:13:27.568Z,3.25
2017-04-24T10:14:27.708Z,3.33
2017-04-24T10:15:27.257Z,3.28
2017-04-24T10:16:26.679Z,2.70
2017-04-24T10:17:26.758Z,2.97
2017-04-24T10:18:26.415Z,3.40
2017-04-24T10:19:25.680Z,3.17
2017-04-24T10:20:24.899Z,3.75
2017-04-24T10:21:24.937Z,2.77
2017-04-24T10:22:24.231Z,3.13
2017-04-24T10:23:23.520Z,4.00
2017-04-24T10:24:22.996Z,3.53
2017-04-24T10:25:23.028Z,2.68
2017-04-24T10:26:22.319Z,2.88
2017-04-24T10:27:23.006Z,2.60
2017-04-24T10:28:22.231Z,3.03
2017-04-24T10:29:21.521Z,2.97
2017-04-24T10:30:20.727Z,3.48
2017-04-24T10:31:20.679Z,3.52
2017-04-24T10:32:20.393Z,3.33
2017-04-24T10:33:19.709Z,3.77
2017-04-24T10:34:18.909Z,3.15
2017-04-24T10:35:18.790Z,3.22
2017-04-24T10:36:18.767Z,2.85
2017-04-24T10:37:18.145Z,3.33
2017-04-24T10:38:17.393Z,3.57
2017-04-24T10:39:16.626Z,3.37
2017-04-24T10:40:16.765Z,3.80
2017-04-24T10:41:16.544Z,3.03
2017-04-24T10:42:15.767Z,3.35
2017-04-24T10:43:15.304Z,3.27
2017-04-24T10:44:14.676Z,3.07
2017-04-24T10:45:13.939Z,3.10
2017-04-24T10:46:13.687Z,3.35
2017-04-24T10:47:12.909Z,3.93
2017-04-24T10:48:12.458Z,3.72
2017-04-24T10:49:11.795Z,3.53
2017-04-24T10:50:11.256Z,3.53
2017-04-24T10:51:11.328Z,4.03
2017-04-24T10:52:11.334Z,3.93
2017-04-24T10:53:10.539Z,3.68
2017-04-24T10:54:09.761Z,3.75
2017-04-24T10:55:09.414Z,3.98
2017-04-24T10:56:09.114Z,3.67
2017-04-24T10:57:09.082Z,3.60
2017-04-24T10:58:08.278Z,3.72
2017-04-24T10:59:07.552Z,3.65
2017-04-24T11:00:06.945Z,3.27
2017-04-24T11:01:06.502Z,3.33
2017-04-24T11:02:05.789Z,3.78
2017-04-24T11:03:05.028Z,3.68
2017-04-24T11:04:04.261Z,3.38
2017-04-24T11:05:03.478Z,4.37
2017-04-24T11:06:03.512Z,3.82
2017-04-24T11:07:02.996Z,4.50
2017-04-24T11:08:02.287Z,3.42
2017-04-24T11:09:01.739Z,3.95
2017-04-24T11:10:01.033Z,3.63
2017-04-24T11:11:00.247Z,3.32
2017-04-24T11:12:00.332Z,3.67
2017-04-24T11:12:59.821Z,3.88
2017-04-24T11:13:59.805Z,3.93
2017-04-24T11:14:59.228Z,3.93
2017-04-24T11:15:58.757Z,3.90
2017-04-24T11:16:58.039Z,3.63
2017-04-24T11:17:58.533Z,3.37
2017-04-24T11:18:58.524Z,3.38
2017-04-24T11:19:57.808Z,3.67
2017-04-24T11:20:58.340Z,3.87
2017-04-24T11:21:58.544Z,3.78
2017-04-24T11:22:58.311Z,3.82
2017-04-24T11:23:58.107Z,3.75
2017-04-24T11:24:57.626Z,3.77
2017-04-24T11:25:56.954Z,4.08
2017-04-24T11:26:56.265Z,3.85
2017-04-24T11:27:56.232Z,4.30
2017-04-24T11:28:55.713Z,3.85
2017-04-24T11:29:55.273Z,4.55
2017-04-24T11:30:55.275Z,3.85
2017-04-24T11:31:55.251Z,4.67
2017-04-24T11:32:54.524Z,4.53
2017-04-24T11:33:53.744Z,3.58
2017-04-24T11:34:53.347Z,3.90
2017-04-24T11:35:53.388Z,3.58
2017-04-24T11:36:52.998Z,3.55
2017-04-24T11:37:52.228Z,3.90
2017-04-24T11:38:51.475Z,3.95
2017-04-24T11:39:50.951Z,3.88
2017-04-24T11:40:50.191Z,3.35
2017-04-24T11:41:49.452Z,3.40
2017-04-24T11:42:49.251Z,4.47
2017-04-24T11:43:49.040Z,3.43
2017-04-24T11:44:48.260Z,4.05
2017-04-24T11:45:47.496Z,3.47
2017-04-24T11:46:46.852Z,3.73
2017-04-24T11:47:46.141Z,4.08
2017-04-24T11:48:45.640Z,4.82
2017-04-24T11:49:45.221Z,4.27
2017-04-24T11:50:44.668Z,4.10
2017-04-24T11:51:45.174Z,3.80
2017-04-24T11:52:45.207Z,4.57
2017-04-24T11:53:44.616Z,4.63
2017-04-24T11:54:43.919Z,4.12
2017-04-24T11:55:43.476Z,4.32
2017-04-24T11:56:42.746Z,4.17
2017-04-24T11:57:42.020Z,4.22
2017-04-24T11:58:41.280Z,4.02
2017-04-24T11:59:40.539Z,4.30
2017-04-24T12:00:40.623Z,3.72
2017-04-24T12:01:40.023Z,3.95
2017-04-24T12:02:39.409Z,3.67
2017-04-24T12:03:38.768Z,4.18
2017-04-24T12:04:38.035Z,3.60
2017-04-24T12:05:37.467Z,4.10
2017-04-24T12:06:36.768Z,4.83
2017-04-24T12:07:36.004Z,4.12
2017-04-24T12:08:35.278Z,4.08
2017-04-24T12:09:35.772Z,4.18
2017-04-24T12:10:35.773Z,3.85
2017-04-24T12:11:35.217Z,4.50
2017-04-24T12:12:35.026Z,3.70
2017-04-24T12:13:34.292Z,4.00
2017-04-24T12:14:33.804Z,3.77
2017-04-24T12:15:33.199Z,4.45
2017-04-24T12:16:32.480Z,4.30
2017-04-24T12:17:31.883Z,4.38
2017-04-24T12:18:31.412Z,4.05
2017-04-24T12:19:30.675Z,4.58
2017-04-24T12:20:30.038Z,4.22
2017-04-24T12:21:30.098Z,3.80
2017-04-24T12:22:29.365Z,4.65
2017-04-24T12:23:28.729Z,4.37
2017-04-24T12:24:28.854Z,3.87
2017-04-24T12:25:28.826Z,4.12
2017-04-24T12:26:28.109Z,3.80
2017-04-24T12:27:27.447Z,4.57
2017-04-24T12:28:26.871Z,3.92
2017-04-24T12:29:26.208Z,4.95
2017-04-24T12:30:26.212Z,4.02
2017-04-24T12:31:28.887Z,4.02
2017-04-24T12:32:32.384Z,4.27
2017-04-24T12:33:32.669Z,4.43
2017-04-24T12:34:31.992Z,3.45
2017-04-24T12:35:33.365Z,4.13
2017-04-24T12:36:32.708Z,4.10
2017-04-24T12:37:32.081Z,3.92
2017-04-24T12:38:31.398Z,4.28
2017-04-24T12:39:31.483Z,4.23
2017-04-24T12:40:30.843Z,3.85
2017-04-24T12:41:30.112Z,3.38
2017-04-24T12:42:30.120Z,3.85
2017-04-24T12:43:30.176Z,3.45
2017-04-24T12:44:29.423Z,4.30
2017-04-24T12:45:28.723Z,4.22
2017-04-24T12:46:27.965Z,4.40
2017-04-24T12:47:27.193Z,3.83
2017-04-24T12:48:26.436Z,3.75
2017-04-24T12:49:25.652Z,4.43
2017-04-24T12:50:25.625Z,3.53
2017-04-24T12:51:24.893Z,3.73
2017-04-24T12:52:24.098Z,4.28
2017-04-24T12:53:23.322Z,3.73
2017-04-24T12:54:23.289Z,4.38
2017-04-24T12:55:23.258Z,3.65
2017-04-24T12:56:22.497Z,3.95
2017-04-24T12:57:21.736Z,4.58
2017-04-24T12:58:20.976Z,4.60
2017-04-24T12:59:20.221Z,3.83
2017-04-24T13:00:19.480Z,4.03
2017-04-24T13:01:19.443Z,4.42
2017-04-24T13:02:18.668Z,3.95
2017-04-24T13:03:17.942Z,3.92
2017-04-24T13:04:17.461Z,4.40
2017-04-24T13:05:17.627Z,4.25
2017-04-24T13:06:16.872Z,3.47
2017-04-24T13:07:16.823Z,4.15
2017-04-24T13:08:16.052Z,4.17
2017-04-24T13:09:15.358Z,4.25
2017-04-24T13:10:15.312Z,4.33
2017-04-24T13:11:14.564Z,4.00
2017-04-24T13:12:13.826Z,4.27
2017-04-24T13:13:13.102Z,4.80